Airfield :
LOGIN :

Register | Disclaimer

   EN    FR    IT 

 










Legend :    VFR   Marginal VFR   IFR   Intensive IFR   Very Intensive IFR
Visi :
Ceiling :
>= 8 km
>= 3000ft
5 to 8 km
1000 to 3000 ft
1500m to 5 km
500 to 1000 ft
800 to 1500m
200 to 500 ft
< 800m
< 200 ft
Symbols :   Thunderstorms  Fog  Heavy snow  Heavy precipitations  Wind > 20 kt
SIGMETs :     Misc.  Thunderstorms  Icing  Turbulence  Mountain Waves  Volcanic Ashes






- Airport Elevation : 24 ft
- IATA code : FAO


LPFR - Faro

CURRENT METAR :
  • 071600Z 24016KT CAVOK 24/17 Q1015

EXPIRED METARs :
  • 071530Z 24016KT CAVOK 24/16 Q1015
  • 071500Z 24015KT CAVOK 24/16 Q1015
  • 071430Z 24015KT CAVOK 24/16 Q1015
  • 071400Z 24015KT CAVOK 24/17 Q1015
  • 071330Z 24014KT CAVOK 23/16 Q1015

TAF TAF LPFR
Valid from the 07 at 12:00 until the 08 at 12:00 UTC


071100Z 0712/0812 25010KT CAVOK
BECMG 0713/0715 25015KT
BECMG 0720/0723 29007KT
BECMG 0806/0809 VRB02KT
BECMG 0810/0812 19007KT



MET'MAP, your aeronautical weather chart ! - Copyright ORBIFLY December 2007 - Disclaimer

ORBIFLY MET'MAP TEAM :

Programming & Development : Alexandra Zaïnal
Original concept : Baudouin d'Aumeries
Technical & hardware support : Manuel Goepfert
Assistance : Marc-Olivier Méhu




SOURCES & CREDITS :

   NOAA